createdAt,value
2022-08-08T00:00:55.924Z,14.30
2022-08-08T00:03:31.374Z,14.40
2022-08-08T00:06:40.032Z,14.30
2022-08-08T00:09:34.114Z,14.30
2022-08-08T00:12:10.335Z,14.30
2022-08-08T00:15:17.535Z,14.20
2022-08-08T00:18:04.985Z,14.20
2022-08-08T00:20:38.925Z,14.20
2022-08-08T00:23:42.957Z,14.20
2022-08-08T00:26:29.347Z,14.20
2022-08-08T00:29:46.492Z,14.10
2022-08-08T00:32:35.406Z,14.10
2022-08-08T00:35:37.359Z,14.10
2022-08-08T00:38:32.507Z,14.10
2022-08-08T00:41:15.152Z,14.10
2022-08-08T00:43:59.315Z,14.00
2022-08-08T00:46:58.594Z,14.10
2022-08-08T00:49:58.634Z,14.00
2022-08-08T00:52:51.621Z,14.00
2022-08-08T00:55:53.205Z,14.00
2022-08-08T00:58:59.732Z,14.00
2022-08-08T01:01:55.837Z,13.90
2022-08-08T01:05:01.999Z,13.90
2022-08-08T01:08:01.830Z,13.90
2022-08-08T01:11:14.823Z,13.90
2022-08-08T01:14:54.414Z,13.80
2022-08-08T01:17:54.811Z,13.80
2022-08-08T01:20:28.366Z,13.80
2022-08-08T01:24:03.006Z,13.80
2022-08-08T01:26:50.119Z,13.70
2022-08-08T01:29:35.694Z,13.70
2022-08-08T01:32:59.540Z,13.70
2022-08-08T01:36:01.119Z,13.70
2022-08-08T01:39:06.335Z,13.70
2022-08-08T01:42:03.636Z,13.60
2022-08-08T01:44:53.215Z,13.60
2022-08-08T01:48:14.473Z,13.60
2022-08-08T01:50:38.817Z,13.60
2022-08-08T01:55:17.005Z,13.60
2022-08-08T01:57:09.038Z,13.50
2022-08-08T02:00:02.580Z,13.50
2022-08-08T02:02:52.407Z,13.50
2022-08-08T02:05:24.902Z,13.50
2022-08-08T02:08:12.328Z,13.50
2022-08-08T02:10:53.441Z,13.50
2022-08-08T02:13:54.809Z,13.50
2022-08-08T02:16:58.857Z,13.50
2022-08-08T02:20:08.243Z,13.50
2022-08-08T02:22:55.086Z,13.50
2022-08-08T02:25:48.678Z,13.50
2022-08-08T02:28:42.546Z,13.50
2022-08-08T02:31:58.785Z,13.50
2022-08-08T02:35:07.531Z,13.50
2022-08-08T02:38:12.726Z,13.50
2022-08-08T02:41:59.424Z,13.50
2022-08-08T02:44:56.926Z,13.40
2022-08-08T02:47:54.862Z,13.40
2022-08-08T02:50:41.708Z,13.40
2022-08-08T02:53:43.145Z,13.30
2022-08-08T02:56:45.100Z,13.30
2022-08-08T02:59:57.221Z,13.30
2022-08-08T03:02:50.608Z,13.30
2022-08-08T03:05:21.760Z,13.30
2022-08-08T03:08:11.089Z,13.30
2022-08-08T03:11:14.024Z,13.30
2022-08-08T03:15:57.764Z,13.40
2022-08-08T03:17:39.589Z,13.40
2022-08-08T03:20:10.336Z,13.40
2022-08-08T03:22:56.198Z,13.40
2022-08-08T03:25:34.014Z,13.40
2022-08-08T03:28:10.258Z,13.50
2022-08-08T03:30:42.625Z,13.40
2022-08-08T03:33:55.934Z,13.50
2022-08-08T03:36:10.316Z,13.50
2022-08-08T03:38:57.563Z,13.50
2022-08-08T03:42:12.931Z,13.50
2022-08-08T03:44:33.445Z,13.50
2022-08-08T03:47:14.096Z,13.50
2022-08-08T03:50:00.067Z,13.50
2022-08-08T03:52:33.949Z,13.60
2022-08-08T03:55:56.476Z,13.60
2022-08-08T03:58:35.138Z,13.60
2022-08-08T04:01:02.610Z,13.60
2022-08-08T04:03:57.248Z,13.60
2022-08-08T04:06:29.542Z,13.50
2022-08-08T04:09:10.699Z,13.50
2022-08-08T04:11:58.961Z,13.50
2022-08-08T04:14:38.056Z,13.40
2022-08-08T04:17:15.634Z,13.40
2022-08-08T04:19:56.175Z,13.40
2022-08-08T04:22:29.600Z,13.30
2022-08-08T04:24:58.352Z,13.40
2022-08-08T04:28:01.948Z,13.40
2022-08-08T04:30:17.270Z,13.40
2022-08-08T04:32:49.819Z,13.40
2022-08-08T04:35:20.199Z,13.40
2022-08-08T04:37:50.041Z,13.40
2022-08-08T04:40:23.898Z,13.40
2022-08-08T04:42:57.117Z,13.40
2022-08-08T04:45:27.388Z,13.40
2022-08-08T04:48:00.377Z,13.40
2022-08-08T04:50:38.450Z,13.40
2022-08-08T04:53:14.034Z,13.40
2022-08-08T04:56:00.777Z,13.50
2022-08-08T04:58:31.646Z,13.50
2022-08-08T05:01:00.336Z,13.50
2022-08-08T05:04:07.598Z,13.60
2022-08-08T05:06:29.114Z,13.70
2022-08-08T05:09:02.219Z,13.80
2022-08-08T05:11:38.830Z,13.80
2022-08-08T05:14:08.575Z,13.90
2022-08-08T05:16:53.641Z,13.90
2022-08-08T05:20:09.080Z,14.00
2022-08-08T05:22:17.655Z,14.10
2022-08-08T05:24:48.516Z,14.10
2022-08-08T05:27:17.661Z,14.20
2022-08-08T05:29:45.552Z,14.20
2022-08-08T05:32:27.243Z,14.30
2022-08-08T05:35:04.811Z,14.30
2022-08-08T05:37:52.914Z,14.40
2022-08-08T05:40:29.327Z,14.50
2022-08-08T05:43:17.166Z,14.50
2022-08-08T05:46:03.432Z,14.60
2022-08-08T05:48:34.591Z,14.70
2022-08-08T05:51:13.405Z,14.70
2022-08-08T05:54:25.798Z,14.80
2022-08-08T05:56:42.227Z,14.90
2022-08-08T06:00:00.048Z,15.00
2022-08-08T06:02:33.697Z,15.00
2022-08-08T06:05:06.852Z,15.10
2022-08-08T06:07:52.233Z,15.10
2022-08-08T06:10:32.858Z,15.20
2022-08-08T06:13:01.709Z,15.10
2022-08-08T06:15:50.247Z,15.20
2022-08-08T06:18:23.679Z,15.20
2022-08-08T06:20:58.618Z,15.30
2022-08-08T06:23:48.631Z,15.30
2022-08-08T06:26:38.326Z,15.40
2022-08-08T06:29:48.628Z,15.50
2022-08-08T06:32:11.350Z,15.60
2022-08-08T06:34:52.400Z,15.80
2022-08-08T06:37:39.643Z,16.00
2022-08-08T06:40:16.621Z,16.20
2022-08-08T06:43:09.605Z,16.30
2022-08-08T06:45:50.998Z,16.50
2022-08-08T06:48:19.377Z,16.60
2022-08-08T06:50:48.871Z,16.70
2022-08-08T06:53:20.571Z,16.80
2022-08-08T06:56:02.006Z,16.90
2022-08-08T06:58:33.599Z,17.10
2022-08-08T07:01:52.750Z,17.20
2022-08-08T07:04:40.188Z,17.30
2022-08-08T07:06:54.451Z,17.40
2022-08-08T07:09:56.662Z,17.50
2022-08-08T07:12:47.947Z,17.60
2022-08-08T07:16:04.465Z,17.80
2022-08-08T07:18:57.788Z,17.90
2022-08-08T07:21:33.422Z,18.00
2022-08-08T07:24:10.062Z,18.00
2022-08-08T07:26:52.945Z,18.10
2022-08-08T07:30:01.642Z,18.20
2022-08-08T07:32:10.320Z,18.20
2022-08-08T07:34:59.444Z,18.20
2022-08-08T07:37:55.689Z,18.20
2022-08-08T07:40:29.634Z,18.40
2022-08-08T07:43:02.652Z,18.50
2022-08-08T07:45:34.322Z,18.70
2022-08-08T07:48:03.199Z,18.80
2022-08-08T07:50:34.471Z,18.90
2022-08-08T07:53:09.685Z,19.10
2022-08-08T07:55:53.876Z,19.20
2022-08-08T07:58:34.076Z,19.40
2022-08-08T08:01:11.106Z,19.60
2022-08-08T08:04:13.671Z,19.80
2022-08-08T08:06:43.820Z,20.10
2022-08-08T08:09:39.360Z,20.90
2022-08-08T08:12:31.482Z,21.50
2022-08-08T08:15:06.949Z,22.00
2022-08-08T08:17:48.259Z,22.50
2022-08-08T08:20:21.955Z,22.90
2022-08-08T08:22:57.660Z,23.10
2022-08-08T08:25:33.110Z,23.00
2022-08-08T08:28:21.564Z,22.70
2022-08-08T08:30:55.874Z,22.40
2022-08-08T08:33:26.272Z,22.10
2022-08-08T08:36:18.702Z,21.90
2022-08-08T08:38:49.237Z,21.70
2022-08-08T08:41:22.345Z,21.50
2022-08-08T08:43:52.820Z,21.40
2022-08-08T08:46:41.361Z,21.30
2022-08-08T08:49:15.825Z,21.10
2022-08-08T08:51:51.554Z,21.10
2022-08-08T08:54:25.054Z,21.00
2022-08-08T08:56:55.726Z,21.00
2022-08-08T08:59:58.611Z,21.10
2022-08-08T09:02:24.086Z,21.30
2022-08-08T09:04:59.199Z,21.80
2022-08-08T09:07:39.089Z,22.30
2022-08-08T09:10:17.800Z,22.80
2022-08-08T09:12:49.059Z,23.40
2022-08-08T09:15:37.081Z,23.60
2022-08-08T09:18:04.746Z,23.70
2022-08-08T09:21:58.399Z,23.80
2022-08-08T09:23:25.840Z,23.70
2022-08-08T09:26:14.709Z,23.70
2022-08-08T09:28:44.039Z,23.60
2022-08-08T09:31:56.773Z,23.80
2022-08-08T09:34:35.290Z,24.00
2022-08-08T09:37:37.405Z,24.20
2022-08-08T09:40:10.448Z,24.40
2022-08-08T09:42:44.112Z,24.70
2022-08-08T09:46:02.007Z,24.90
2022-08-08T09:48:21.323Z,25.00
2022-08-08T09:50:55.796Z,25.20
2022-08-08T09:53:53.078Z,25.40
2022-08-08T09:56:25.063Z,25.50
2022-08-08T09:59:20.122Z,25.70
2022-08-08T10:01:59.421Z,25.80
2022-08-08T10:04:38.435Z,26.00
2022-08-08T10:07:13.971Z,26.20
2022-08-08T10:09:59.431Z,26.30
2022-08-08T10:12:37.468Z,26.40
2022-08-08T10:15:17.457Z,26.60
2022-08-08T10:18:05.856Z,26.70
2022-08-08T10:20:57.724Z,26.90
2022-08-08T10:23:55.979Z,26.90
2022-08-08T10:26:52.054Z,26.90
2022-08-08T10:29:58.729Z,26.90
2022-08-08T10:32:38.158Z,26.90
2022-08-08T10:36:06.882Z,27.00
2022-08-08T10:38:05.433Z,27.00
2022-08-08T10:40:33.167Z,27.00
2022-08-08T10:43:05.043Z,27.10
2022-08-08T10:45:55.819Z,27.20
2022-08-08T10:48:58.798Z,27.30
2022-08-08T10:51:31.337Z,27.40
2022-08-08T10:54:07.647Z,27.40
2022-08-08T10:56:35.889Z,27.50
2022-08-08T10:59:14.348Z,27.50
2022-08-08T11:01:46.599Z,27.60
2022-08-08T11:04:29.410Z,27.60
2022-08-08T11:07:00.703Z,27.60
2022-08-08T11:09:27.730Z,27.50
2022-08-08T11:12:04.946Z,27.50
2022-08-08T11:14:50.478Z,27.60
2022-08-08T11:18:00.052Z,27.60
2022-08-08T11:20:13.885Z,27.70
2022-08-08T11:22:42.064Z,27.90
2022-08-08T11:25:13.685Z,28.00
2022-08-08T11:27:44.577Z,28.00
2022-08-08T11:30:24.059Z,28.10
2022-08-08T11:32:55.061Z,28.20
2022-08-08T11:35:42.382Z,28.10
2022-08-08T11:38:39.189Z,28.00
2022-08-08T11:41:00.906Z,27.90
2022-08-08T11:43:38.649Z,28.00
2022-08-08T11:46:14.036Z,28.00
2022-08-08T11:48:47.179Z,28.10
2022-08-08T11:51:30.467Z,28.20
2022-08-08T11:54:27.098Z,28.20
2022-08-08T11:56:56.689Z,28.20
2022-08-08T11:59:57.889Z,28.10
2022-08-08T12:02:34.793Z,28.10
2022-08-08T12:05:12.416Z,28.10
2022-08-08T12:07:52.008Z,28.20
2022-08-08T12:10:21.714Z,28.20
2022-08-08T12:12:51.848Z,28.30
2022-08-08T12:15:41.838Z,28.20
2022-08-08T12:18:21.312Z,28.20
2022-08-08T12:20:53.172Z,28.30
2022-08-08T12:23:42.956Z,28.40
2022-08-08T12:26:28.440Z,28.50
2022-08-08T12:29:17.933Z,28.60
2022-08-08T12:31:53.785Z,28.60
2022-08-08T12:34:43.545Z,28.60
2022-08-08T12:37:23.167Z,28.60
2022-08-08T12:40:22.713Z,28.70
2022-08-08T12:42:52.576Z,28.80
2022-08-08T12:45:58.914Z,28.80
2022-08-08T12:48:35.898Z,28.70
2022-08-08T12:51:04.772Z,28.50
2022-08-08T12:53:37.612Z,28.40
2022-08-08T12:56:19.054Z,28.30
2022-08-08T12:58:54.225Z,28.40
2022-08-08T13:01:34.807Z,28.30
2022-08-08T13:04:18.713Z,28.30
2022-08-08T13:07:16.507Z,28.50
2022-08-08T13:10:05.221Z,28.60
2022-08-08T13:12:39.645Z,28.70
2022-08-08T13:15:13.675Z,28.80
2022-08-08T13:18:08.224Z,28.90
2022-08-08T13:20:28.074Z,29.00
2022-08-08T13:23:30.475Z,29.10
2022-08-08T13:25:44.113Z,29.10
2022-08-08T13:28:32.234Z,29.10
2022-08-08T13:31:01.811Z,29.10
2022-08-08T13:33:42.607Z,29.10
2022-08-08T13:36:11.015Z,29.10
2022-08-08T13:38:38.494Z,29.10
2022-08-08T13:41:16.468Z,29.00
2022-08-08T13:43:50.785Z,29.00
2022-08-08T13:46:28.541Z,29.10
2022-08-08T13:50:32.052Z,29.10
2022-08-08T13:52:00.762Z,29.10
2022-08-08T13:54:33.256Z,29.20
2022-08-08T13:57:12.426Z,29.30
2022-08-08T13:59:49.053Z,29.30
2022-08-08T14:02:31.233Z,29.30
2022-08-08T14:05:09.028Z,29.20
2022-08-08T14:07:51.972Z,29.20
2022-08-08T14:10:33.606Z,29.10
2022-08-08T14:13:21.078Z,29.10
2022-08-08T14:16:04.454Z,29.10
2022-08-08T14:18:35.536Z,29.20
2022-08-08T14:21:20.324Z,29.20
2022-08-08T14:24:04.639Z,29.20
2022-08-08T14:26:43.165Z,29.30
2022-08-08T14:29:28.899Z,29.30
2022-08-08T14:32:08.862Z,29.20
2022-08-08T14:34:38.000Z,29.20
2022-08-08T14:37:08.567Z,29.10
2022-08-08T14:39:54.066Z,28.90
2022-08-08T14:42:54.664Z,28.90
2022-08-08T14:46:01.646Z,28.90
2022-08-08T14:48:16.327Z,29.10
2022-08-08T14:50:45.334Z,29.00
2022-08-08T14:53:14.284Z,28.80
2022-08-08T14:55:43.225Z,28.80
2022-08-08T14:58:16.282Z,28.80
2022-08-08T15:00:48.162Z,28.80
2022-08-08T15:03:17.506Z,28.80
2022-08-08T15:05:53.273Z,28.80
2022-08-08T15:08:34.778Z,28.90
2022-08-08T15:11:11.467Z,28.90
2022-08-08T15:14:01.744Z,28.70
2022-08-08T15:16:34.642Z,28.60
2022-08-08T15:19:02.502Z,28.30
2022-08-08T15:21:30.257Z,28.20
2022-08-08T15:23:58.044Z,28.20
2022-08-08T15:26:25.678Z,28.20
2022-08-08T15:28:53.946Z,28.10
2022-08-08T15:31:56.197Z,28.10
2022-08-08T15:34:28.855Z,27.90
2022-08-08T15:36:56.486Z,27.80
2022-08-08T15:39:23.332Z,27.70
2022-08-08T15:41:53.980Z,27.60
2022-08-08T15:44:21.136Z,27.60
2022-08-08T15:46:50.866Z,27.60
2022-08-08T15:49:20.692Z,27.60
2022-08-08T15:51:50.186Z,27.60
2022-08-08T15:54:37.653Z,27.50
2022-08-08T15:57:07.535Z,27.50
2022-08-08T16:00:06.847Z,27.30
2022-08-08T16:02:22.006Z,27.20
2022-08-08T16:05:00.675Z,27.10
2022-08-08T16:07:50.910Z,27.00
2022-08-08T16:13:08.672Z,26.80
2022-08-08T16:13:34.804Z,26.70
2022-08-08T16:15:57.552Z,26.60
2022-08-08T16:18:32.411Z,26.40
2022-08-08T16:21:00.697Z,26.30
2022-08-08T16:23:31.766Z,26.10
2022-08-08T16:26:12.817Z,26.10
2022-08-08T16:28:44.644Z,25.90
2022-08-08T16:31:12.941Z,25.80
2022-08-08T16:33:40.571Z,25.60
2022-08-08T16:36:12.957Z,25.30
2022-08-08T16:38:46.462Z,25.10
2022-08-08T16:41:18.428Z,24.90
2022-08-08T16:43:51.629Z,24.80
2022-08-08T16:46:44.110Z,24.60
2022-08-08T16:49:09.206Z,24.40
2022-08-08T16:54:59.755Z,24.00
2022-08-08T16:55:06.469Z,24.20
2022-08-08T16:57:18.023Z,23.80
2022-08-08T16:59:52.285Z,23.60
2022-08-08T17:02:42.794Z,23.40
2022-08-08T17:05:10.242Z,23.30
2022-08-08T17:07:41.888Z,23.10
2022-08-08T17:10:17.013Z,23.00
2022-08-08T17:12:52.877Z,22.90
2022-08-08T17:15:22.967Z,22.70
2022-08-08T17:18:03.562Z,22.60
2022-08-08T17:20:32.577Z,22.50
2022-08-08T17:23:17.825Z,22.50
2022-08-08T17:25:53.755Z,22.40
2022-08-08T17:28:35.311Z,22.30
2022-08-08T17:31:39.317Z,22.20
2022-08-08T17:34:48.557Z,22.20
2022-08-08T17:37:00.153Z,22.10
2022-08-08T17:40:02.835Z,22.00
2022-08-08T17:42:16.053Z,21.90
2022-08-08T17:44:45.559Z,21.80
2022-08-08T17:47:23.118Z,21.80
2022-08-08T17:49:52.642Z,21.70
2022-08-08T17:52:23.326Z,21.70
2022-08-08T17:54:51.947Z,21.60
2022-08-08T17:57:23.995Z,21.60
2022-08-08T17:59:51.801Z,21.50
2022-08-08T18:02:28.802Z,21.50
2022-08-08T18:04:58.427Z,21.40
2022-08-08T18:08:04.011Z,21.40
2022-08-08T18:10:15.230Z,21.30
2022-08-08T18:12:42.839Z,21.30
2022-08-08T18:15:12.721Z,21.20
2022-08-08T18:18:09.139Z,21.20
2022-08-08T18:20:36.781Z,21.10
2022-08-08T18:23:16.586Z,21.00
2022-08-08T18:25:46.519Z,20.90
2022-08-08T18:28:14.368Z,20.90
2022-08-08T18:30:45.568Z,20.80
2022-08-08T18:33:20.291Z,20.80
2022-08-08T18:36:18.633Z,20.80
2022-08-08T18:38:51.837Z,20.70
2022-08-08T18:41:51.528Z,20.70
2022-08-08T18:44:12.843Z,20.60
2022-08-08T18:46:54.754Z,20.50
2022-08-08T18:49:25.918Z,20.50
2022-08-08T18:52:18.123Z,20.40
2022-08-08T18:55:00.626Z,20.40
2022-08-08T18:57:36.979Z,20.40
2022-08-08T19:00:14.122Z,20.30
2022-08-08T19:02:48.585Z,20.30
2022-08-08T19:05:22.200Z,20.30
2022-08-08T19:07:52.336Z,20.20
2022-08-08T19:10:19.617Z,20.20
2022-08-08T19:12:53.213Z,20.10
2022-08-08T19:15:21.637Z,20.10
2022-08-08T19:18:31.206Z,20.10
2022-08-08T19:20:39.504Z,20.00
2022-08-08T19:23:10.349Z,20.00
2022-08-08T19:26:19.898Z,20.00
2022-08-08T19:28:27.516Z,19.90
2022-08-08T19:31:04.254Z,19.90
2022-08-08T19:33:52.127Z,19.80
2022-08-08T19:36:25.293Z,19.80
2022-08-08T19:38:56.026Z,19.80
2022-08-08T19:41:30.616Z,19.70
2022-08-08T19:44:02.887Z,19.70
2022-08-08T19:46:33.189Z,19.70
2022-08-08T19:49:01.341Z,19.60
2022-08-08T19:51:34.606Z,19.60
2022-08-08T19:54:06.848Z,19.50
2022-08-08T19:56:40.568Z,19.50
2022-08-08T19:59:11.658Z,19.50
2022-08-08T20:02:01.314Z,19.40
2022-08-08T20:04:27.489Z,19.40
2022-08-08T20:06:54.157Z,19.20
2022-08-08T20:09:24.171Z,19.20
2022-08-08T20:11:52.309Z,19.00
2022-08-08T20:14:35.764Z,18.90
2022-08-08T20:17:06.871Z,18.80
2022-08-08T20:19:38.735Z,18.70
2022-08-08T20:22:21.044Z,18.60
2022-08-08T20:24:56.501Z,18.60
2022-08-08T20:27:27.487Z,18.50
2022-08-08T20:30:12.038Z,18.40
2022-08-08T20:32:59.026Z,18.40
2022-08-08T20:35:32.808Z,18.30
2022-08-08T20:38:14.378Z,18.20
2022-08-08T20:40:41.751Z,18.20
2022-08-08T20:43:16.367Z,18.10
2022-08-08T20:45:57.464Z,18.10
2022-08-08T20:48:28.552Z,18.00
2022-08-08T20:50:55.447Z,17.90
2022-08-08T20:53:59.826Z,17.80
2022-08-08T20:56:09.749Z,17.80
2022-08-08T20:58:38.537Z,17.70
2022-08-08T21:01:07.801Z,17.70
2022-08-08T21:03:55.109Z,17.60
2022-08-08T21:06:51.987Z,17.60
2022-08-08T21:09:15.814Z,17.50
2022-08-08T21:11:50.681Z,17.40
2022-08-08T21:14:30.346Z,17.40
2022-08-08T21:17:00.734Z,17.30
2022-08-08T21:19:34.012Z,17.30
2022-08-08T21:22:11.698Z,17.30
2022-08-08T21:24:42.044Z,17.20
2022-08-08T21:28:05.152Z,17.20
2022-08-08T21:30:09.596Z,17.20
2022-08-08T21:32:44.199Z,17.10
2022-08-08T21:36:13.858Z,17.10
2022-08-08T21:38:03.924Z,17.10
2022-08-08T21:40:32.457Z,17.10
2022-08-08T21:42:59.459Z,17.00
2022-08-08T21:48:00.745Z,17.00
2022-08-08T21:48:21.914Z,17.00
2022-08-08T21:50:58.180Z,16.90
2022-08-08T21:54:35.830Z,16.80
2022-08-08T21:56:19.189Z,16.80
2022-08-08T21:58:58.551Z,16.80
2022-08-08T22:01:38.915Z,16.70
2022-08-08T22:04:10.575Z,16.60
2022-08-08T22:06:40.294Z,16.60
2022-08-08T22:09:09.097Z,16.50
2022-08-08T22:11:59.249Z,16.50
2022-08-08T22:14:23.869Z,16.50
2022-08-08T22:16:54.203Z,16.40
2022-08-08T22:19:23.751Z,16.40
2022-08-08T22:21:53.102Z,16.30
2022-08-08T22:24:28.518Z,16.30
2022-08-08T22:27:01.176Z,16.30
2022-08-08T22:30:01.489Z,16.20
2022-08-08T22:32:17.920Z,16.10
2022-08-08T22:34:50.377Z,16.10
2022-08-08T22:37:49.505Z,16.00
2022-08-08T22:40:16.635Z,16.00
2022-08-08T22:42:47.400Z,15.90
2022-08-08T22:45:15.189Z,15.90
2022-08-08T22:47:47.179Z,15.80
2022-08-08T22:50:26.752Z,15.80
2022-08-08T22:54:30.755Z,15.70
2022-08-08T22:55:59.787Z,15.70
2022-08-08T22:58:34.312Z,15.60
2022-08-08T23:01:16.604Z,15.60
2022-08-08T23:03:58.522Z,15.60
2022-08-08T23:06:25.991Z,15.60
2022-08-08T23:08:58.772Z,15.50
2022-08-08T23:12:17.453Z,15.50
2022-08-08T23:14:16.693Z,15.50
2022-08-08T23:16:47.195Z,15.50
2022-08-08T23:19:20.132Z,15.40
2022-08-08T23:21:48.825Z,15.40
2022-08-08T23:24:22.356Z,15.40
2022-08-08T23:26:53.512Z,15.30
2022-08-08T23:29:27.208Z,15.30
2022-08-08T23:31:58.237Z,15.30
2022-08-08T23:34:25.318Z,15.30
2022-08-08T23:36:58.433Z,15.20
2022-08-08T23:39:32.024Z,15.10
2022-08-08T23:42:08.878Z,15.00
2022-08-08T23:44:38.632Z,15.00
2022-08-08T23:49:00.409Z,15.00
2022-08-08T23:50:03.037Z,14.90
2022-08-08T23:52:32.680Z,14.90
2022-08-08T23:55:07.346Z,14.80
2022-08-08T23:57:52.145Z,14.80
